Time;durP1;ratioP1;P1;durP2;ratioP2;P2;SDS_P1;SDS_P2;PMS_P1;PMS_P2;Temp;Humidity;BMP_temperature;BMP_pressure;BME280_temperature;BME280_humidity;BME280_pressure;Samples;Min_cycle;Max_cycle;Signal;HPM_P1;HPM_P2
2021/09/27 00:01:40;;;;;;;8.30;4.72;;;;;;;17.18;100.00;101301.75;6280584;28;20050;-84
2021/09/27 00:04:42;;;;;;;9.15;4.78;;;;;;;17.17;100.00;101314.19;6280323;28;20045;-82
2021/09/27 00:07:44;;;;;;;9.60;5.25;;;;;;;17.18;100.00;101318.53;6280526;28;20048;-83
2021/09/27 00:10:50;;;;;;;7.18;4.57;;;;;;;17.18;100.00;101326.50;6279467;28;20052;-84
2021/09/27 00:13:53;;;;;;;5.90;4.05;;;;;;;17.18;100.00;101326.50;6278483;28;20045;-84
2021/09/27 00:16:54;;;;;;;8.25;4.93;;;;;;;17.16;100.00;101330.22;6279351;28;20053;-84
2021/09/27 00:19:57;;;;;;;10.80;5.25;;;;;;;17.14;100.00;101330.34;6279475;28;20392;-82
2021/09/27 00:22:58;;;;;;;7.70;4.35;;;;;;;17.13;100.00;101331.31;6277501;28;20068;-83
2021/09/27 00:26:01;;;;;;;7.90;5.00;;;;;;;17.12;100.00;101326.97;6277316;28;20052;-84
2021/09/27 00:29:03;;;;;;;6.00;3.90;;;;;;;17.14;100.00;101324.19;6277456;28;20049;-84
2021/09/27 00:32:05;;;;;;;9.88;5.20;;;;;;;17.12;100.00;101321.66;6277810;28;20049;-84
2021/09/27 00:35:11;;;;;;;7.90;4.90;;;;;;;17.14;100.00;101327.69;6277136;28;20484;-84
2021/09/27 00:38:13;;;;;;;6.53;4.30;;;;;;;17.14;100.00;101330.34;6277760;28;20045;-82
2021/09/27 00:41:18;;;;;;;9.52;4.40;;;;;;;17.14;100.00;101330.34;6276507;28;20053;-83
2021/09/27 00:44:19;;;;;;;6.57;4.28;;;;;;;17.10;100.00;101336.00;6276291;28;20056;-79
2021/09/27 00:47:20;;;;;;;8.32;4.20;;;;;;;17.08;100.00;101329.91;6276120;28;20057;-83
2021/09/27 00:50:28;;;;;;;9.18;5.15;;;;;;;17.10;100.00;101336.84;6276600;28;20048;-82
2021/09/27 00:53:34;;;;;;;8.85;4.65;;;;;;;17.09;100.00;101332.50;6277180;28;20045;-84
2021/09/27 00:56:40;;;;;;;7.35;4.55;;;;;;;17.06;100.00;101334.50;6277561;28;20056;-82
2021/09/27 00:59:47;;;;;;;8.25;5.30;;;;;;;17.03;100.00;101327.59;6252567;28;20057;-83
2021/09/27 01:02:48;;;;;;;8.07;4.60;;;;;;;17.04;100.00;101328.47;6252942;28;20049;-83
2021/09/27 01:06:05;;;;;;;7.95;5.03;;;;;;;17.03;100.00;101329.41;6251980;28;20052;-84
2021/09/27 01:09:21;;;;;;;9.77;4.90;;;;;;;17.01;100.00;101334.84;6251012;28;20045;-81
2021/09/27 01:12:42;;;;;;;8.57;5.18;;;;;;;17.01;100.00;101332.19;6250597;28;20045;-82
2021/09/27 01:15:51;;;;;;;8.90;4.25;;;;;;;16.99;100.00;101328.78;6219102;28;1023452;-84
2021/09/27 01:19:00;;;;;;;;;;;;;;;16.98;100.00;101327.91;6299263;23;20120;-81
2021/09/27 01:22:10;;;;;;;16.02;5.47;;;;;;;16.98;100.00;101329.72;6281993;28;20045;-81
2021/09/27 01:25:32;;;;;;;8.02;5.18;;;;;;;16.97;100.00;101325.38;6281091;28;20048;-81
2021/09/27 01:28:57;;;;;;;7.75;3.85;;;;;;;16.95;100.00;101322.84;6280210;28;20045;-81
2021/09/27 01:32:20;;;;;;;9.15;5.28;;;;;;;16.92;100.00;101322.22;6281500;28;20048;-81
2021/09/27 01:35:39;;;;;;;12.75;6.53;;;;;;;16.89;100.00;101309.13;6279138;28;20052;-81
2021/09/27 01:38:47;;;;;;;8.43;5.85;;;;;;;16.89;100.00;101301.19;6280209;28;20053;-81
2021/09/27 01:41:55;;;;;;;7.30;4.87;;;;;;;16.90;100.00;101305.56;6282086;28;20057;-81
2021/09/27 01:45:03;;;;;;;11.68;5.57;;;;;;;16.88;100.00;101305.63;6283669;28;20511;-81
2021/09/27 01:48:12;;;;;;;8.82;4.93;;;;;;;16.87;100.00;101297.78;6279579;28;20436;-80
2021/09/27 01:51:20;;;;;;;11.93;5.95;;;;;;;16.87;100.00;101295.97;6276550;28;20447;-80
2021/09/27 01:54:29;;;;;;;7.35;4.90;;;;;;;16.87;100.00;101297.78;6277173;28;20053;-81
2021/09/27 01:57:36;;;;;;;7.63;4.25;;;;;;;16.85;100.00;101299.69;6277330;28;20538;-81
2021/09/27 02:00:41;;;;;;;9.02;5.05;;;;;;;16.83;100.00;101301.63;6276849;28;20041;-81
2021/09/27 02:03:48;;;;;;;12.52;5.30;;;;;;;16.83;100.00;101291.00;6276271;28;20060;-80
2021/09/27 02:06:55;;;;;;;10.35;5.97;;;;;;;16.84;100.00;101300.66;6273936;28;20048;-80
2021/09/27 02:10:04;;;;;;;9.35;5.85;;;;;;;16.82;100.00;101299.94;6273816;28;20140;-80
2021/09/27 02:13:09;;;;;;;;;;;;;;;16.82;100.00;101303.44;6274400;28;20041;-80
2021/09/27 02:16:15;;;;;;;11.15;5.47;;;;;;;16.81;100.00;101292.94;6273739;28;19928;-81
2021/09/27 02:19:27;;;;;;;11.93;4.93;;;;;;;16.79;100.00;101286.88;6274420;28;20056;-80
2021/09/27 02:22:35;;;;;;;7.88;4.78;;;;;;;16.80;100.00;101294.72;6274562;28;20045;-81
2021/09/27 02:26:01;;;;;;;8.00;4.40;;;;;;;16.79;100.00;101294.81;6274936;28;20056;-80
2021/09/27 02:29:02;;;;;;;8.88;4.60;;;;;;;16.77;100.00;101294.94;6260144;28;20071;-81
2021/09/27 02:32:09;;;;;;;9.68;5.53;;;;;;;16.78;100.00;101293.13;6274603;28;20408;-81
2021/09/27 02:35:18;;;;;;;9.40;5.85;;;;;;;16.77;100.00;101291.44;6274992;28;20055;-80
2021/09/27 02:38:25;;;;;;;10.17;5.87;;;;;;;16.78;100.00;101301.09;6276008;28;20492;-81
2021/09/27 02:41:35;;;;;;;10.27;5.03;;;;;;;16.79;100.00;101306.28;6276418;28;20053;-80
2021/09/27 02:44:37;;;;;;;10.65;5.90;;;;;;;16.79;100.00;101302.78;6273556;28;20056;-81
2021/09/27 02:47:42;;;;;;;9.52;5.85;;;;;;;16.80;100.00;101304.47;6273723;28;20052;-80
2021/09/27 02:50:49;;;;;;;7.72;4.80;;;;;;;16.80;100.00;101307.97;6273281;28;20056;-81
2021/09/27 02:53:51;;;;;;;11.88;4.07;;;;;;;16.78;100.00;101301.94;6272326;28;20294;-80
2021/09/27 02:57:05;;;;;;;10.15;5.72;;;;;;;16.73;100.00;101296.13;6271940;28;20053;-80
2021/09/27 03:00:10;;;;;;;10.77;5.30;;;;;;;16.75;100.00;101302.16;6272279;28;20048;-81
2021/09/27 03:03:19;;;;;;;7.63;4.95;;;;;;;16.71;100.00;101292.66;6274702;28;20049;-80
2021/09/27 03:06:36;;;;;;;9.10;5.15;;;;;;;16.75;100.00;101307.47;6279587;28;20131;-81
2021/09/27 03:09:46;;;;;;;9.55;5.32;;;;;;;16.77;100.00;101302.91;6280208;28;20052;-81
2021/09/27 03:12:51;;;;;;;8.68;5.45;;;;;;;16.73;100.00;101301.44;6280776;28;20056;-81
2021/09/27 03:16:24;;;;;;;9.30;5.63;;;;;;;16.71;100.00;101298.84;6279785;28;20080;-81
2021/09/27 03:19:37;;;;;;;8.88;4.93;;;;;;;16.72;100.00;101291.78;6267303;28;20049;-80
2021/09/27 03:22:47;;;;;;;11.30;5.85;;;;;;;16.71;100.00;101295.31;6280145;28;20496;-81
2021/09/27 03:26:00;;;;;;;10.75;5.75;;;;;;;16.70;100.00;101293.63;6279392;28;20056;-80
2021/09/27 03:29:12;;;;;;;9.20;4.97;;;;;;;16.71;100.00;101293.56;6279897;28;20053;-81
2021/09/27 03:32:23;;;;;;;9.43;5.43;;;;;;;16.69;100.00;101286.63;6280830;28;20048;-81
2021/09/27 03:35:37;;;;;;;9.85;5.40;;;;;;;16.68;100.00;101285.78;6280601;28;20053;-81
2021/09/27 03:38:47;;;;;;;15.32;6.30;;;;;;;16.69;100.00;101295.44;6280109;28;20060;-81
2021/09/27 03:41:55;;;;;;;7.25;4.82;;;;;;;16.69;100.00;101297.25;6280386;28;20049;-81
2021/09/27 03:45:03;;;;;;;11.30;5.85;;;;;;;16.67;100.00;101291.22;6279850;28;20045;-80
2021/09/27 03:48:11;;;;;;;9.43;5.07;;;;;;;16.66;100.00;101295.66;6280069;28;20072;-80
2021/09/27 03:51:18;;;;;;;10.60;5.93;;;;;;;16.65;100.00;101293.13;6279213;28;20049;-80
2021/09/27 03:54:26;;;;;;;8.70;4.68;;;;;;;16.66;100.00;101293.00;6279638;28;20059;-81
2021/09/27 03:57:34;;;;;;;12.57;5.82;;;;;;;16.66;100.00;101297.47;6279957;28;20045;-81
2021/09/27 04:00:42;;;;;;;10.43;4.95;;;;;;;16.66;100.00;101286.84;6278751;28;20051;-80
2021/09/27 04:04:00;;;;;;;8.75;5.35;;;;;;;16.66;100.00;101287.69;6279634;28;20045;-81
2021/09/27 04:07:15;;;;;;;13.93;5.57;;;;;;;16.66;100.00;101287.69;6278831;28;20068;-81
2021/09/27 04:10:23;;;;;;;8.02;5.00;;;;;;;16.65;100.00;101286.00;6280830;28;20065;-80
2021/09/27 04:13:34;;;;;;;10.45;4.88;;;;;;;16.64;100.00;101286.97;6275423;28;20052;-81
2021/09/27 04:16:45;;;;;;;11.30;5.63;;;;;;;16.63;100.00;101287.06;6278596;28;20136;-81
2021/09/27 04:19:58;;;;;;;13.20;6.72;;;;;;;16.61;100.00;101283.66;6279482;28;20071;-80
2021/09/27 04:23:09;;;;;;;9.30;5.15;;;;;;;16.62;100.00;101283.56;6282310;28;20076;-81
2021/09/27 04:26:22;;;;;;;12.90;5.93;;;;;;;16.60;100.00;101274.00;6280165;28;20055;-81
2021/09/27 04:29:51;;;;;;;10.20;5.82;;;;;;;16.62;100.00;101269.44;6280707;28;20049;-80
2021/09/27 04:33:09;;;;;;;13.47;6.00;;;;;;;16.60;100.00;101269.56;6281088;28;20049;-80
2021/09/27 04:36:17;;;;;;;12.38;5.60;;;;;;;16.62;100.00;101272.09;6278621;28;20287;-81
2021/09/27 04:39:22;;;;;;;9.98;5.30;;;;;;;16.61;100.00;101273.91;6280797;28;20044;-81
2021/09/27 04:43:09;;;;;;;10.05;5.40;;;;;;;16.60;100.00;101266.91;6281595;28;20053;-81
2021/09/27 04:46:17;;;;;;;12.88;5.68;;;;;;;16.57;100.00;101264.44;6281181;28;20056;-81
2021/09/27 04:49:45;;;;;;;11.95;5.78;;;;;;;16.58;100.00;101270.59;6284453;28;20064;-81
2021/09/27 04:52:55;;;;;;;9.75;5.47;;;;;;;16.56;100.00;101268.06;6285041;28;20056;-81
2021/09/27 04:56:12;;;;;;;13.98;4.55;;;;;;;16.55;100.00;101266.38;6281799;28;20049;-81
2021/09/27 04:59:23;;;;;;;12.63;5.47;;;;;;;16.56;100.00;101262.75;6280906;28;20056;-82
2021/09/27 05:02:39;;;;;;;13.20;6.32;;;;;;;16.56;100.00;101262.75;6280415;28;20040;-81
2021/09/27 05:06:02;;;;;;;11.43;5.70;;;;;;;16.55;100.00;101261.06;6280159;28;20056;-81
2021/09/27 05:09:18;;;;;;;7.72;5.40;;;;;;;16.56;100.00;101257.44;6276455;28;20055;-81
2021/09/27 05:12:58;;;;;;;10.90;6.00;;;;;;;16.54;100.00;101253.22;6277001;28;20048;-81
2021/09/27 05:16:13;;;;;;;9.70;5.18;;;;;;;16.53;100.00;101260.31;6275918;28;20412;-80
2021/09/27 05:19:30;;;;;;;7.97;4.72;;;;;;;16.51;100.00;101258.75;6269976;28;20123;-81
2021/09/27 05:23:02;;;;;;;8.32;5.28;;;;;;;16.47;100.00;101250.97;6277108;28;20134;-81
2021/09/27 05:26:23;;;;;;;8.85;4.70;;;;;;;16.44;100.00;101251.22;6275166;28;20059;-81
2021/09/27 05:29:43;;;;;;;11.88;5.80;;;;;;;16.45;100.00;101246.75;6276907;28;20393;-81
2021/09/27 05:32:57;;;;;;;9.52;5.10;;;;;;;16.44;100.00;101245.03;6278130;28;20124;-82
2021/09/27 05:36:13;;;;;;;6.43;3.97;;;;;;;16.44;100.00;101234.44;6278437;28;20139;-81
2021/09/27 05:39:27;;;;;;;7.60;4.53;;;;;;;16.44;100.00;101231.78;6278496;28;20049;-80
2021/09/27 05:42:50;;;;;;;7.82;4.25;;;;;;;16.43;100.00;101230.94;6276729;28;20057;-81
2021/09/27 05:46:06;;;;;;;7.13;4.25;;;;;;;16.45;100.00;101236.16;6275547;28;20053;-80
2021/09/27 05:49:13;;;;;;;9.00;5.38;;;;;;;16.44;100.00;101243.25;6277124;28;20057;-80
2021/09/27 05:52:19;;;;;;;11.43;5.95;;;;;;;16.43;100.00;101236.22;6276828;28;20052;-80
2021/09/27 05:55:31;;;;;;;9.63;5.38;;;;;;;16.41;100.00;101242.63;6275343;28;20056;-80
2021/09/27 05:58:46;;;;;;;9.43;5.55;;;;;;;16.39;100.00;101231.25;6275436;28;20049;-81
2021/09/27 06:01:56;;;;;;;10.80;5.28;;;;;;;16.36;100.00;101236.78;6254919;28;20060;-81
2021/09/27 06:05:11;;;;;;;11.50;5.95;;;;;;;16.32;100.00;101237.97;6253391;28;20060;-80
2021/09/27 06:08:31;;;;;;;12.63;5.70;;;;;;;16.28;100.00;101237.31;6253476;28;20056;-81
2021/09/27 06:11:41;;;;;;;12.95;6.50;;;;;;;16.26;100.00;101236.59;6253274;28;20049;-80
2021/09/27 06:14:42;;;;;;;10.40;4.13;;;;;;;16.27;100.00;101245.38;6253592;28;20053;-81
2021/09/27 06:17:58;;;;;;;8.90;4.72;;;;;;;16.26;100.00;101246.31;6251703;28;20136;-80
2021/09/27 06:21:17;;;;;;;9.73;5.35;;;;;;;16.23;100.00;101239.44;6253363;28;20076;-81
2021/09/27 06:24:22;;;;;;;;;;;;;;;16.23;100.00;101242.94;6253703;28;20046;-80
2021/09/27 06:27:40;;;;;;;8.82;4.30;;;;;;;16.25;100.00;101242.81;6255567;28;19928;-81
2021/09/27 06:30:48;;;;;;;8.10;5.00;;;;;;;16.27;100.00;101248.03;6254832;28;20046;-80
2021/09/27 06:33:54;;;;;;;11.80;5.85;;;;;;;16.28;100.00;101244.44;6254859;28;20516;-79
2021/09/27 06:37:01;;;;;;;12.55;5.25;;;;;;;16.33;100.00;101248.44;6256322;28;20459;-81
2021/09/27 06:40:06;;;;;;;11.23;6.10;;;;;;;16.30;100.00;101234.53;6259408;28;20065;-81
2021/09/27 06:43:11;;;;;;;9.77;5.65;;;;;;;16.29;100.00;101227.56;6258897;28;20045;-79
2021/09/27 06:46:12;;;;;;;11.27;5.97;;;;;;;16.30;100.00;101235.38;6259892;28;20056;-81
2021/09/27 06:49:14;;;;;;;9.02;5.22;;;;;;;16.33;100.00;101237.84;6261113;28;20497;-80
2021/09/27 06:52:18;;;;;;;13.13;5.68;;;;;;;16.35;100.00;101235.94;6259825;28;20050;-81
2021/09/27 06:55:19;;;;;;;10.27;5.32;;;;;;;16.37;100.00;101234.03;6259732;28;20149;-81
2021/09/27 06:58:23;;;;;;;11.30;6.07;;;;;;;16.37;100.00;101234.03;6258571;28;20058;-80
2021/09/27 07:01:24;;;;;;;7.93;4.22;;;;;;;16.40;100.00;101230.31;6260177;28;20677;-80
2021/09/27 07:04:25;;;;;;;11.20;5.50;;;;;;;16.40;100.00;101231.16;6258797;28;20046;-80
2021/09/27 07:07:28;;;;;;;9.15;5.18;;;;;;;16.43;100.00;101230.09;6258560;28;20049;-81
2021/09/27 07:10:29;;;;;;;10.02;5.15;;;;;;;16.44;100.00;101227.34;6259929;28;20060;-81
2021/09/27 07:13:31;;;;;;;10.07;5.68;;;;;;;16.45;100.00;101222.88;6258787;28;20052;-80
2021/09/27 07:16:32;;;;;;;13.70;5.88;;;;;;;16.48;100.00;101222.66;6260370;28;20049;-80
2021/09/27 07:19:35;;;;;;;9.18;5.22;;;;;;;16.51;100.00;101237.50;6296433;23;20055;-77
2021/09/27 07:22:38;;;;;;;9.52;5.63;;;;;;;16.53;100.00;101227.63;6275837;28;20049;-77
2021/09/27 07:25:39;;;;;;;12.65;6.38;;;;;;;16.56;100.00;101230.06;6275601;28;20053;-76
2021/09/27 07:28:42;;;;;;;14.68;8.15;;;;;;;16.58;100.00;101229.03;6275786;28;20408;-77
2021/09/27 07:31:44;;;;;;;11.07;6.00;;;;;;;16.59;100.00;101224.56;6275597;28;20056;-77
2021/09/27 07:34:45;;;;;;;8.20;5.03;;;;;;;16.61;100.00;101230.59;6275667;28;20052;-77
2021/09/27 07:37:48;;;;;;;8.38;5.38;;;;;;;16.60;100.00;101228.91;6275245;28;20115;-77
2021/09/27 07:40:50;;;;;;;8.20;5.03;;;;;;;16.60;100.00;101235.06;6275706;28;20068;-77
2021/09/27 07:43:52;;;;;;;10.38;5.78;;;;;;;16.59;100.00;101225.41;6275271;28;20049;-76
2021/09/27 07:46:53;;;;;;;12.63;5.57;;;;;;;16.61;100.00;101225.28;6275221;28;20049;-77
2021/09/27 07:49:54;;;;;;;8.55;5.20;;;;;;;16.64;100.00;101225.06;6275152;28;20055;-77
2021/09/27 07:52:57;;;;;;;11.52;6.50;;;;;;;16.69;100.00;101218.47;6275013;28;20041;-77
2021/09/27 07:55:58;;;;;;;10.57;5.70;;;;;;;16.74;100.00;101223.50;6275065;28;20412;-77
2021/09/27 07:59:00;;;;;;;9.70;5.32;;;;;;;16.78;100.00;101224.13;6275013;28;20052;-77
2021/09/27 08:02:02;;;;;;;8.75;5.32;;;;;;;16.83;100.00;101230.78;6267315;28;20144;-78
2021/09/27 08:05:04;;;;;;;13.20;5.65;;;;;;;16.84;100.00;101224.50;6266392;28;20493;-78
2021/09/27 08:08:07;;;;;;;9.68;5.95;;;;;;;16.93;100.00;101230.97;6274634;28;20052;-77
2021/09/27 08:11:10;;;;;;;9.55;5.40;;;;;;;16.94;100.00;101225.56;6275109;28;20390;-77
2021/09/27 08:14:11;;;;;;;9.60;5.15;;;;;;;16.96;100.00;101236.91;6274723;28;20045;-77
2021/09/27 08:17:12;;;;;;;8.65;5.13;;;;;;;17.00;100.00;101221.63;6274682;28;20539;-76
2021/09/27 08:20:16;;;;;;;10.45;5.90;;;;;;;16.99;100.00;101230.53;6274654;28;20053;-77
2021/09/27 08:23:19;;;;;;;9.35;5.57;;;;;;;17.06;100.00;101225.63;6274847;28;20072;-77
2021/09/27 08:26:21;;;;;;;9.63;5.20;;;;;;;17.10;100.00;101233.25;6274644;28;20072;-77
2021/09/27 08:29:22;;;;;;;10.85;5.70;;;;;;;17.11;100.00;101229.63;6274487;28;20049;-77
2021/09/27 08:32:24;;;;;;;9.07;5.50;;;;;;;17.12;100.00;101226.03;6274385;28;20041;-77
2021/09/27 08:35:26;;;;;;;11.85;6.03;;;;;;;17.23;100.00;101236.72;6274071;28;20045;-77
2021/09/27 08:38:29;;;;;;;8.32;5.15;;;;;;;17.25;100.00;101233.94;6258109;28;20116;-77
2021/09/27 08:41:34;;;;;;;8.95;5.30;;;;;;;17.28;100.00;101235.53;6252625;28;20041;-77
2021/09/27 08:44:51;;;;;;;8.95;4.70;;;;;;;17.36;100.00;101228.69;6249223;28;20045;-77
2021/09/27 08:48:00;;;;;;;10.65;5.85;;;;;;;17.39;100.00;101235.56;6249488;28;20056;-77
2021/09/27 08:51:02;;;;;;;8.18;4.90;;;;;;;17.40;100.00;101243.44;6249576;28;20058;-77
2021/09/27 08:54:10;;;;;;;7.13;4.13;;;;;;;17.40;100.00;101232.81;6249242;28;20041;-77
2021/09/27 08:57:28;;;;;;;11.90;4.23;;;;;;;17.48;100.00;101246.34;6249189;28;20497;-76
2021/09/27 09:00:34;;;;;;;6.85;4.55;;;;;;;17.52;100.00;101241.66;6258222;28;20488;-77
2021/09/27 09:03:47;;;;;;;7.82;4.50;;;;;;;17.56;100.00;101245.81;6263537;28;20405;-77
2021/09/27 09:06:53;;;;;;;11.30;5.05;;;;;;;17.54;100.00;101237.09;6270808;28;20056;-77
2021/09/27 09:10:02;;;;;;;8.85;4.40;;;;;;;17.58;100.00;101235.06;6259719;28;20045;-77
2021/09/27 09:13:06;;;;;;;9.63;5.25;;;;;;;17.64;100.00;101232.78;6258716;28;20386;-78
2021/09/27 09:16:11;;;;;;;7.43;3.97;;;;;;;17.73;100.00;101233.91;6270821;28;20060;-78
2021/09/27 09:19:16;;;;;;;6.03;4.07;;;;;;;17.79;100.00;101221.97;6272139;28;20072;-78
2021/09/27 09:22:25;;;;;;;7.90;4.63;;;;;;;17.90;100.00;101217.56;6267811;28;20054;-78
2021/09/27 09:25:31;;;;;;;6.38;3.65;;;;;;;17.93;100.00;101227.09;6261476;28;20049;-78
2021/09/27 09:28:34;;;;;;;6.93;4.00;;;;;;;17.93;100.00;101233.25;6259578;28;20045;-78
2021/09/27 09:31:43;;;;;;;8.38;4.50;;;;;;;17.93;100.00;101235.06;6251773;28;20053;-77
2021/09/27 09:34:45;;;;;;;6.57;3.13;;;;;;;17.94;100.00;101234.09;6248482;28;20083;-77
2021/09/27 09:37:51;;;;;;;5.35;3.60;;;;;;;18.03;100.00;101230.72;6260999;28;20127;-77
2021/09/27 09:40:56;;;;;;;5.60;3.75;;;;;;;18.04;100.00;101228.94;6265337;28;20045;-78
2021/09/27 09:43:58;;;;;;;4.60;3.17;;;;;;;18.04;100.00;101228.94;6256839;28;20053;-78
2021/09/27 09:47:02;;;;;;;5.13;3.33;;;;;;;18.13;100.00;101217.59;6248669;28;20493;-77
2021/09/27 09:50:07;;;;;;;25.00;13.18;;;;;;;18.16;100.00;101218.19;6250286;28;20060;-78
2021/09/27 09:53:18;;;;;;;6.03;3.95;;;;;;;18.22;100.00;101207.09;6265138;28;20048;-77
2021/09/27 09:56:30;;;;;;;8.25;4.10;;;;;;;18.30;100.00;101201.13;6272916;28;20660;-78
2021/09/27 09:59:34;;;;;;;6.38;3.40;;;;;;;18.34;100.00;101205.25;6273558;28;20056;-78
2021/09/27 10:02:38;;;;;;;7.40;3.75;;;;;;;18.47;100.00;101205.13;6273109;28;20065;-77
2021/09/27 10:05:42;;;;;;;5.97;3.70;;;;;;;18.52;100.00;101211.78;6272174;28;20052;-77
2021/09/27 10:08:52;;;;;;;4.20;2.67;;;;;;;18.60;100.00;101213.00;6248228;28;20061;-77
2021/09/27 10:11:57;;;;;;;10.80;4.28;;;;;;;18.72;100.00;101204.91;6248420;28;20136;-77
2021/09/27 10:14:59;;;;;;;6.13;2.95;;;;;;;18.68;100.00;101203.44;6247700;28;20511;-77
2021/09/27 10:18:01;;;;;;;7.35;3.47;;;;;;;18.71;100.00;101197.03;6263797;28;20060;-78
2021/09/27 10:21:29;;;;;;;5.80;3.50;;;;;;;18.78;100.00;101190.25;6273141;28;20049;-77
2021/09/27 10:24:35;;;;;;;9.90;3.65;;;;;;;18.88;100.00;101196.53;6262741;28;20412;-78
2021/09/27 10:27:44;;;;;;;8.50;3.38;;;;;;;19.05;100.00;101191.66;6269466;28;20052;-77
2021/09/27 10:30:49;;;;;;;5.50;3.42;;;;;;;19.30;100.00;101191.31;6273856;28;20056;-77
2021/09/27 10:33:56;;;;;;;5.15;2.58;;;;;;;19.39;100.00;101195.03;6273807;28;20045;-77
2021/09/27 10:37:07;;;;;;;4.57;3.20;;;;;;;19.37;100.00;101195.16;6272801;28;20045;-78
2021/09/27 10:40:13;;;;;;;4.32;2.75;;;;;;;19.35;100.00;101197.13;6272051;28;20048;-77
2021/09/27 10:43:19;;;;;;;6.32;2.75;;;;;;;19.32;100.00;101185.88;6269547;28;20048;-77
2021/09/27 10:46:24;;;;;;;4.00;2.67;;;;;;;19.39;100.00;101187.03;6267460;28;20045;-77
2021/09/27 10:49:30;;;;;;;3.47;2.45;;;;;;;19.30;100.00;101187.78;6273184;28;20059;-78
2021/09/27 10:52:41;;;;;;;4.20;2.95;;;;;;;19.24;100.00;101184.66;6268134;28;20093;-77
2021/09/27 10:55:53;;;;;;;6.75;4.15;;;;;;;19.16;100.00;101183.59;6270262;28;20056;-78
2021/09/27 10:58:59;;;;;;;4.80;3.40;;;;;;;19.06;100.00;101183.53;6272562;28;20057;-77
2021/09/27 11:02:04;;;;;;;4.38;2.72;;;;;;;19.09;100.00;101174.44;6269535;28;20044;-77
2021/09/27 11:05:14;;;;;;;7.55;3.53;;;;;;;19.25;100.00;101169.53;6266300;28;20136;-77
2021/09/27 11:08:30;;;;;;;4.65;2.80;;;;;;;19.60;100.00;101171.06;6262209;28;20054;-78
2021/09/27 11:11:45;;;;;;;7.97;2.83;;;;;;;19.89;100.00;101173.94;6257065;28;20053;-77
2021/09/27 11:15:01;;;;;;;5.07;3.05;;;;;;;19.67;100.00;101166.94;6258157;28;20045;-77
2021/09/27 11:18:12;;;;;;;4.10;2.63;;;;;;;19.81;100.00;101166.63;6252440;28;20045;-76
2021/09/27 11:21:21;;;;;;;4.82;3.20;;;;;;;19.99;100.00;101167.69;6246624;28;20240;-77
2021/09/27 11:24:45;;;;;;;4.55;3.15;;;;;;;20.22;100.00;101170.19;6254831;28;20044;-78
2021/09/27 11:28:22;;;;;;;8.32;3.40;;;;;;;20.10;100.00;101171.25;6266227;28;20048;-77
2021/09/27 11:31:35;;;;;;;4.38;2.72;;;;;;;19.98;100.00;101165.13;6256164;28;20352;-77
2021/09/27 11:34:53;;;;;;;4.47;3.13;;;;;;;20.35;100.00;101165.47;6251748;28;20056;-78
2021/09/27 11:38:32;;;;;;;3.83;2.75;;;;;;;20.40;99.60;101154.38;6251235;28;20390;-77
2021/09/27 11:41:37;;;;;;;4.32;3.03;;;;;;;20.54;93.69;101153.19;6220760;28;20057;-78
2021/09/27 11:44:51;;;;;;;6.15;2.85;;;;;;;20.52;97.44;101150.66;6251213;28;20188;-78
2021/09/27 11:48:01;;;;;;;8.30;3.35;;;;;;;20.71;96.77;101156.06;6251342;28;20485;-77
2021/09/27 11:51:20;;;;;;;5.45;2.63;;;;;;;20.90;91.72;101149.91;6251096;28;20053;-77
2021/09/27 11:54:30;;;;;;;5.45;2.95;;;;;;;21.22;91.18;101146.13;6266877;28;20641;-77
2021/09/27 11:57:39;;;;;;;3.60;2.63;;;;;;;21.43;93.64;101143.28;6275806;28;20122;-77
2021/09/27 12:00:48;;;;;;;3.88;2.60;;;;;;;21.22;92.99;101148.78;6271854;28;20052;-76
2021/09/27 12:03:56;;;;;;;5.72;2.75;;;;;;;20.78;92.51;101153.66;6266216;28;20060;-77
2021/09/27 12:07:02;;;;;;;3.83;2.87;;;;;;;20.44;95.94;101145.97;6274609;28;20045;-76
2021/09/27 12:10:09;;;;;;;3.65;2.58;;;;;;;20.26;97.71;101151.09;6274735;28;20053;-75
2021/09/27 12:13:13;;;;;;;4.85;3.17;;;;;;;20.14;99.05;101154.00;6273294;28;20060;-76
2021/09/27 12:16:22;;;;;;;3.60;2.72;;;;;;;20.15;98.37;101158.34;6271370;28;20049;-76
2021/09/27 12:19:26;;;;;;;3.28;2.70;;;;;;;20.35;96.71;101152.13;6269357;28;20055;-76
2021/09/27 12:22:31;;;;;;;4.15;2.72;;;;;;;20.86;93.84;101144.97;6274361;28;20056;-76
2021/09/27 12:25:36;;;;;;;4.38;2.90;;;;;;;21.02;91.64;101150.59;6271411;28;20393;-75
2021/09/27 12:28:38;;;;;;;2.92;2.38;;;;;;;21.12;92.57;101148.78;6266025;28;20056;-77
2021/09/27 12:31:48;;;;;;;4.65;3.00;;;;;;;20.87;91.76;101139.47;6273819;28;20071;-76
2021/09/27 12:34:51;;;;;;;3.22;2.45;;;;;;;21.22;92.54;101133.59;6271648;28;20041;-77
2021/09/27 12:37:55;;;;;;;5.78;2.78;;;;;;;21.49;91.61;101146.25;6273386;28;20045;-77
2021/09/27 12:40:57;;;;;;;4.25;2.70;;;;;;;21.37;86.52;101136.69;6271138;28;20049;-76
2021/09/27 12:44:06;;;;;;;5.28;3.03;;;;;;;21.21;91.70;101131.91;6273796;28;20044;-77
2021/09/27 12:47:10;;;;;;;4.15;3.00;;;;;;;20.97;90.99;101134.97;6273881;28;20056;-76
2021/09/27 12:50:15;;;;;;;4.03;2.78;;;;;;;20.83;88.66;101130.03;6274075;28;20048;-77
2021/09/27 12:53:18;;;;;;;6.22;2.70;;;;;;;20.69;93.24;101133.97;6269302;28;20056;-77
2021/09/27 12:56:20;;;;;;;6.22;2.90;;;;;;;20.56;92.51;101136.03;6269205;28;20052;-77
2021/09/27 12:59:28;;;;;;;4.72;3.15;;;;;;;20.59;89.60;101133.09;6254572;28;20053;-77
2021/09/27 13:02:38;;;;;;;4.57;2.80;;;;;;;20.82;89.07;101132.88;6258928;28;20052;-78
2021/09/27 13:05:49;;;;;;;4.45;3.25;;;;;;;21.06;87.05;101124.44;6270100;28;20040;-78
2021/09/27 13:09:02;;;;;;;4.70;2.90;;;;;;;21.38;86.91;101133.03;6267147;28;20053;-77
2021/09/27 13:12:13;;;;;;;3.80;2.42;;;;;;;21.58;85.61;101116.97;6260870;28;20045;-77
2021/09/27 13:15:22;;;;;;;3.97;3.05;;;;;;;21.58;87.59;101123.16;6258521;28;20057;-78
2021/09/27 13:18:37;;;;;;;2.60;2.15;;;;;;;21.70;86.37;101115.81;6273568;23;20493;-79
2021/09/27 13:21:47;;;;;;;5.95;2.78;;;;;;;21.58;89.40;101120.50;6254806;28;20057;-79
2021/09/27 13:24:51;;;;;;;4.22;2.83;;;;;;;21.54;89.15;101124.44;6245238;28;20050;-79
2021/09/27 13:27:55;;;;;;;3.38;2.40;;;;;;;21.74;89.59;101115.38;6255162;28;20049;-77
2021/09/27 13:31:01;;;;;;;2.70;1.95;;;;;;;21.60;88.95;101125.69;6255223;28;20045;-78
2021/09/27 13:34:24;;;;;;;4.00;2.38;;;;;;;21.34;86.92;101126.28;6255351;28;20482;-79
2021/09/27 13:37:36;;;;;;;3.75;2.50;;;;;;;21.03;90.08;101130.94;6254568;28;20046;-78
2021/09/27 13:40:41;;;;;;;4.50;2.45;;;;;;;20.78;92.43;101133.13;6256302;28;20053;-78
2021/09/27 13:43:47;;;;;;;3.00;2.03;;;;;;;20.68;96.28;101126.09;6255152;28;20085;-78
2021/09/27 13:46:48;;;;;;;3.28;2.50;;;;;;;20.51;95.91;101123.09;6255963;28;20535;-79
2021/09/27 13:49:49;;;;;;;4.47;2.42;;;;;;;20.40;96.56;101120.53;6255971;28;20056;-78
2021/09/27 13:53:03;;;;;;;4.32;2.80;;;;;;;20.39;98.24;101117.97;6256543;28;20413;-79
2021/09/27 13:56:08;;;;;;;3.15;2.55;;;;;;;20.52;98.59;101113.25;6252456;28;20056;-78
2021/09/27 13:59:09;;;;;;;4.35;2.03;;;;;;;20.60;92.89;101109.91;6244213;28;20041;-78
2021/09/27 14:02:11;;;;;;;2.92;2.13;;;;;;;20.66;91.72;101106.69;6257993;28;20045;-79
2021/09/27 14:05:15;;;;;;;2.75;1.95;;;;;;;20.79;91.66;101107.25;6257782;28;20041;-78
2021/09/27 14:08:19;;;;;;;4.60;2.00;;;;;;;21.07;93.74;101108.25;6258645;28;20057;-79
2021/09/27 14:11:21;;;;;;;3.42;2.30;;;;;;;21.28;93.39;101108.09;6258242;28;20056;-79
2021/09/27 14:14:22;;;;;;;3.70;2.28;;;;;;;21.41;89.44;101105.19;6258309;28;20493;-79
2021/09/27 14:17:23;;;;;;;3.63;2.15;;;;;;;21.46;89.05;101102.91;6258233;28;20049;-79
2021/09/27 14:20:25;;;;;;;3.88;2.30;;;;;;;21.35;89.31;101119.97;6259405;28;20041;-78
2021/09/27 14:23:28;;;;;;;2.92;2.33;;;;;;;21.22;87.05;101122.91;6258229;28;20045;-78
2021/09/27 14:26:32;;;;;;;4.93;2.88;;;;;;;21.06;88.20;101119.09;6257354;28;20053;-79